Time;durP1;ratioP1;P1;durP2;ratioP2;P2;SDS_P1;SDS_P2;PMS_P1;PMS_P2;Temp;Humidity;BMP_temperature;BMP_pressure;BME280_temperature;BME280_humidity;BME280_pressure;Samples;Min_cycle;Max_cycle;Signal;HPM_P1;HPM_P2
2021/03/02 00:00:30;;;;;;;11.20;6.55;;;;;;;29.73;51.25;101226.59;5038143;28;65813;-35
2021/03/02 00:03:00;;;;;;;11.93;6.20;;;;;;;29.74;51.44;101233.66;5039391;28;69774;-36
2021/03/02 00:05:30;;;;;;;11.82;7.32;;;;;;;29.78;52.47;101234.94;5039993;28;67692;-35
2021/03/02 00:08:00;;;;;;;24.42;8.90;;;;;;;29.77;53.24;101233.25;5039421;28;69922;-35
2021/03/02 00:10:29;;;;;;;28.20;9.40;;;;;;;29.81;54.46;101250.75;5039520;28;66054;-33
2021/03/02 00:12:59;;;;;;;30.13;10.27;;;;;;;29.82;54.79;101252.41;5027630;28;69154;-34
2021/03/02 00:15:28;;;;;;;17.77;9.02;;;;;;;29.78;55.28;101245.75;5040134;28;65393;-35
2021/03/02 00:18:00;;;;;;;37.90;9.35;;;;;;;29.90;55.04;101259.50;5029912;28;70057;-35
2021/03/02 00:20:31;;;;;;;19.00;10.32;;;;;;;29.92;56.65;101272.81;5039606;28;66224;-32
2021/03/02 00:23:15;;;;;;;20.02;13.43;;;;;;;29.81;58.27;101271.53;5038194;28;71151;-34
2021/03/02 00:25:50;;;;;;;24.50;13.40;;;;;;;29.77;57.66;101273.81;5040329;28;65283;-35
2021/03/02 00:28:22;;;;;;;28.38;13.80;;;;;;;29.68;57.57;101264.22;5027046;28;69819;-35
2021/03/02 00:30:52;;;;;;;;;;;;;;;29.66;58.91;101279.81;5033845;28;66653;-35
2021/03/02 00:33:21;;;;;;;;;;;;;;;29.62;59.12;101284.78;5037005;28;69871;-37
2021/03/02 00:35:51;;;;;;;;;;;;;;;29.72;58.72;101283.56;5054315;28;66073;-37
2021/03/02 00:38:20;;;;;;;;;;;;;;;29.81;58.41;101283.22;5036801;28;70206;-38
2021/03/02 00:40:49;;;;;;;;;;;;;;;29.84;58.47;101277.38;5036763;28;66855;-36
2021/03/02 00:43:18;;;;;;;;;;;;;;;29.98;57.91;101290.94;5038328;28;69986;-34
2021/03/02 00:45:47;;;;;;;;;;;;;;;30.06;56.55;101291.59;5039144;28;66453;-34
2021/03/02 00:48:16;;;;;;;;;;;;;;;30.13;57.36;101297.00;5037473;28;69483;-35
2021/03/02 00:50:45;;;;;;;;;;;;;;;30.22;57.43;101306.63;5039360;28;66576;-34
2021/03/02 00:53:14;;;;;;;;;;;;;;;30.22;56.49;101306.63;5038741;28;69268;-34
2021/03/02 00:55:43;;;;;;;;;;;;;;;30.22;58.12;101313.91;5040498;28;65274;-35
2021/03/02 00:58:12;;;;;;;;;;;;;;;30.21;57.92;101307.63;5040355;28;69716;-36
2021/03/02 01:00:41;;;;;;;;;;;;;;;30.37;56.68;101313.72;5037965;28;65184;-34
2021/03/02 01:03:12;;;;;;;;;;;;;;;30.41;56.84;101315.81;5037413;28;69847;-35
2021/03/02 01:05:42;;;;;;;;;;;;;;;30.42;57.25;101328.31;5040391;28;65295;-35
2021/03/02 01:08:17;;;;;;;;;;;;;;;30.42;57.47;101332.88;5036139;28;69470;-35
2021/03/02 01:10:47;;;;;;;;;;;;;;;30.44;57.73;101338.91;5039479;28;66046;-33
2021/03/02 01:13:22;;;;;;;;;;;;;;;30.44;56.23;101331.63;5037387;28;69938;-34
2021/03/02 01:15:51;;;;;;;;;;;;;;;30.33;57.14;101334.13;5037206;28;65700;-34
2021/03/02 01:18:21;;;;;;;;;;;;;;;30.39;57.02;101336.81;5037697;28;70063;-34
2021/03/02 01:20:50;;;;;;;;;;;;;;;30.47;57.15;101346.63;5037343;28;66318;-35
2021/03/02 01:23:19;;;;;;;;;;;;;;;30.50;56.15;101349.75;5037938;28;69732;-35
2021/03/02 01:25:48;;;;;;;;;;;;;;;30.47;57.33;101354.75;5054676;28;65086;-36
2021/03/02 01:28:17;;;;;;;;;;;;;;;30.44;57.03;101353.28;5037077;28;70184;-35
2021/03/02 01:30:45;;;;;;;;;;;;;;;30.42;57.50;101358.09;5039328;28;66183;-36
2021/03/02 01:33:15;;;;;;;;;;;;;;;30.36;57.76;101367.00;5035514;28;70121;-38
2021/03/02 01:35:44;;;;;;;;;;;;;;;30.47;56.64;101362.88;5038804;28;66982;-35
2021/03/02 01:38:13;;;;;;;;;;;;;;;30.57;56.36;101366.03;5037293;28;69974;-38
2021/03/02 01:40:42;;;;;;;;;;;;;;;30.68;55.45;101370.00;5038624;28;67354;-35
2021/03/02 01:43:13;;;;;;;;;;;;;;;30.64;55.52;101368.72;5037327;28;70813;-37
2021/03/02 01:45:42;;;;;;;;;;;;;;;30.65;55.82;101360.41;5038273;28;65070;-38
2021/03/02 01:48:14;;;;;;;;;;;;;;;30.58;56.30;101367.69;5036127;28;69100;-36
2021/03/02 01:50:43;;;;;;;;;;;;;;;30.65;55.45;101365.81;5039172;28;66272;-34
2021/03/02 01:53:12;;;;;;;;;;;;;;;30.56;55.96;101363.50;5037725;28;68469;-34
2021/03/02 01:55:41;;;;;;;;;;;;;;;30.60;55.91;101378.31;5038928;28;65309;-35
2021/03/02 01:58:10;;;;;;;;;;;;;;;30.65;55.71;101379.34;5037857;28;69257;-36
2021/03/02 02:00:40;;;;;;;;;;;;;;;30.65;54.83;101376.66;5038595;28;65935;-35
2021/03/02 02:03:18;;;;;;;;;;;;;;;30.64;55.17;101380.38;5038812;28;69887;-34
2021/03/02 02:05:50;;;;;;;;;;;;;;;30.59;55.48;101377.47;5035988;28;66882;-35
2021/03/02 02:08:32;;;;;;;;;;;;;;;30.68;55.19;101387.06;5051840;28;70704;-34
2021/03/02 02:11:05;;;;;;;;;;;;;;;30.70;54.98;101379.56;5038502;28;66323;-45
2021/03/02 02:13:48;;;;;;;;;;;;;;;30.64;54.75;101374.97;5052368;28;69040;-35
2021/03/02 02:16:20;;;;;;;;;;;;;;;30.70;55.13;101381.41;5037751;28;66305;-34
2021/03/02 02:18:49;;;;;;;;;;;;;;;30.79;54.76;101379.38;5035245;28;70039;-35
2021/03/02 02:21:22;;;;;;;;;;;;;;;30.78;54.29;101380.41;5037898;28;66209;-35
2021/03/02 02:24:04;;;;;;;;;;;;;;;30.79;54.29;101382.91;5037759;28;70640;-36
2021/03/02 02:26:43;;;;;;;;;;;;;;;30.88;54.27;101370.03;5035182;28;65459;-35
2021/03/02 02:29:18;;;;;;;;;;;;;;;30.88;54.28;101375.44;5034925;28;70444;-35
2021/03/02 02:31:47;;;;;;;;;;;;;;;30.85;53.74;101376.69;5035060;28;66422;-36
2021/03/02 02:34:18;;;;;;;;;;;;;;;30.93;54.07;101370.22;5035009;28;69459;-35
2021/03/02 02:36:52;;;;;;;;;;;;;;;30.99;53.51;101377.50;5051872;28;64499;-34
2021/03/02 02:39:22;;;;;;;;;;;;;;;31.04;53.54;101372.31;5036010;28;69966;-36
2021/03/02 02:41:52;;;;;;;;;;;;;;;31.05;53.22;101365.84;5037552;28;66203;-36
2021/03/02 02:44:22;;;;;;;;;;;;;;;31.02;53.46;101363.53;5034149;28;71102;-36
2021/03/02 02:46:51;;;;;;;;;;;;;;;31.05;52.93;101359.59;5033124;28;66950;-35
2021/03/02 02:49:21;;;;;;;;;;;;;;;31.05;53.16;101368.53;5037758;28;70011;-35
2021/03/02 02:51:50;;;;;;;;;;;;;;;31.11;52.82;101354.16;5030026;28;65506;-35
2021/03/02 02:54:19;;;;;;;;;;;;;;;31.14;52.57;101359.16;5037104;28;69365;-37
2021/03/02 02:56:49;;;;;;;;;;;;;;;31.16;52.91;101362.47;5035417;28;66918;-36
2021/03/02 02:59:22;;;;;;;;;;;;;;;31.21;52.78;101358.31;5037690;28;69363;-36
2021/03/02 03:01:54;;;;;;;;;;;;;;;31.22;52.35;101354.56;5036345;28;65836;-36
2021/03/02 03:04:26;;;;;;;;;;;;;;;31.26;52.46;101353.06;5037557;28;69286;-36
2021/03/02 03:06:57;;;;;;;;;;;;;;;31.29;52.13;101349.97;5028624;28;66334;-37
2021/03/02 03:09:26;;;;;;;;;;;;;;;31.32;51.83;101349.53;5032494;28;69925;-36
2021/03/02 03:12:01;;;;;;;;;;;;;;;31.33;52.49;101343.06;5038154;28;66171;-36
2021/03/02 03:14:54;;;;;;;;;;;;;;;31.35;51.72;101343.69;5038000;28;69083;-36
2021/03/02 03:17:41;;;;;;;;;;;;;;;31.39;52.18;101329.50;5035194;28;66271;-38
2021/03/02 03:20:11;;;;;;;;;;;;;;;31.40;51.99;101324.94;5038845;28;70049;-36
2021/03/02 03:22:40;;;;;;;;;;;;;;;31.40;52.14;101314.09;5038130;28;65524;-35
2021/03/02 03:25:11;;;;;;;;;;;;;;;31.44;51.38;101325.34;5041179;28;69227;-36
2021/03/02 03:27:42;;;;;;;;;;;;;;;31.44;51.48;101326.16;5048470;28;66652;-35
2021/03/02 03:30:12;;;;;;;;;;;;;;;31.48;51.64;101321.16;5052847;28;69606;-35
2021/03/02 03:32:43;;;;;;;;;;;;;;;31.50;51.69;101325.31;5043242;28;66406;-36
2021/03/02 03:35:12;;;;;;;;;;;;;;;31.52;51.21;101319.69;5038606;28;68886;-35
2021/03/02 03:37:41;;;;;;;;;;;;;;;31.53;51.40;101308.59;5036587;28;65819;-38
2021/03/02 03:40:10;;;;;;;;;;;;;;;31.60;51.54;101303.19;5037286;28;68794;-35
2021/03/02 03:42:43;;;;;;;;;;;;;;;31.58;51.43;101303.38;5038727;28;66987;-40
2021/03/02 03:45:12;;;;;;;;;;;;;;;31.60;51.49;101293.16;5039848;28;70104;-37
2021/03/02 03:47:41;;;;;;;;;;;;;;;31.63;51.05;101288.34;5039621;28;67101;-35
2021/03/02 03:50:10;;;;;;;;;;;;;;;31.63;50.88;101285.66;5038315;28;70081;-34
2021/03/02 03:52:42;;;;;;;;;;;;;;;31.67;50.83;101273.31;5036338;28;67136;-36
2021/03/02 03:55:12;;;;;;;;;;;;;;;31.70;50.64;101278.28;5035383;28;68879;-39
2021/03/02 03:57:43;;;;;;;;;;;;;;;31.73;51.15;101269.72;5029733;28;66823;-41
2021/03/02 04:00:13;;;;;;;;;;;;;;;31.74;50.61;101265.97;5032636;28;70381;-34
2021/03/02 04:02:42;;;;;;;;;;;;;;;31.76;50.82;101261.16;5036685;28;66334;-37
2021/03/02 04:05:12;;;;;;;;;;;;;;;31.81;50.23;101255.91;5037004;28;71211;-36
2021/03/02 04:07:42;;;;;;;;;;;;;;;31.82;50.85;101241.31;5037061;28;66367;-38
2021/03/02 04:10:11;;;;;;;;;;;;;;;31.85;50.62;101240.88;5034845;28;69148;-36
2021/03/02 04:12:41;;;;;;;;;;;;;;;31.86;49.99;101242.53;5039297;28;66285;-35
2021/03/02 04:15:28;;;;;;;;;;;;;;;31.88;50.28;101232.28;5040178;28;70342;-35
2021/03/02 04:17:57;;;;;;;;;;;;;;;31.90;50.03;101227.50;5041552;28;65632;-35
2021/03/02 04:20:26;;;;;;;;;;;;;;;31.94;50.17;101228.72;5040328;28;69209;-35
2021/03/02 04:22:56;;;;;;;;;;;;;;;31.99;49.77;101226.19;5038287;28;65943;-37
2021/03/02 04:25:25;;;;;;;;;;;;;;;31.98;50.25;101229.97;5040289;28;69815;-36
2021/03/02 04:27:53;;;;;;;;;;;;;;;32.01;50.10;101226.81;5040568;28;66361;-36
2021/03/02 04:30:23;;;;;;;;;;;;;;;32.02;49.76;101220.31;5038636;28;69855;-40
2021/03/02 04:32:53;;;;;;;;;;;;;;;32.06;49.83;101212.56;5039256;28;67169;-37
2021/03/02 04:35:22;;;;;;;;;;;;;;;32.09;49.52;101208.59;5041307;28;69788;-36
2021/03/02 04:38:05;;;;;;;;;;;;;;;32.08;49.80;101207.75;5039404;28;66914;-36
2021/03/02 04:40:34;;;;;;;;;;;;;;;32.11;50.02;101199.16;5038225;28;69171;-36
2021/03/02 04:43:03;;;;;;;;;;;;;;;32.11;50.14;101191.03;5037206;28;66051;-34
2021/03/02 04:45:50;;;;;;;;;;;;;;;32.20;49.92;101197.00;5037817;28;69587;-35
2021/03/02 04:48:19;;;;;;;;;;;;;;;32.24;50.32;101190.09;5038346;28;65742;-35
2021/03/02 04:50:48;;;;;;;;;;;;;;;32.29;50.50;101187.56;5038439;28;69789;-36
2021/03/02 04:53:17;;;;;;;;;;;;;;;32.31;50.61;101176.44;5038657;28;66290;-34
2021/03/02 04:55:47;;;;;;;;;;;;;;;32.34;50.87;101165.97;5027286;28;68876;-36
2021/03/02 04:58:16;;;;;;;;;;;;;;;32.38;50.61;101169.91;5037951;28;66220;-35
2021/03/02 05:00:45;;;;;;;;;;;;;;;32.37;50.71;101167.41;5040258;28;69720;-35
2021/03/02 05:03:15;;;;;;;;;;;;;;;32.40;50.91;101154.22;5041109;28;67163;-34
2021/03/02 05:05:44;;;;;;;;;;;;;;;32.43;50.63;101156.50;5038008;28;70367;-33
2021/03/02 05:08:13;;;;;;;;;;;;;;;32.47;50.75;101144.16;5039035;28;66781;-35
2021/03/02 05:10:41;;;;;;;;;;;;;;;32.46;50.75;101139.78;5038949;28;69968;-35
2021/03/02 05:13:11;;;;;;;;;;;;;;;32.48;50.60;101132.25;5039328;28;66060;-36
2021/03/02 05:15:40;;;;;;;;;;;;;;;32.54;50.05;101129.66;5039086;28;70666;-35
2021/03/02 05:18:09;;;;;;;;;;;;;;;32.61;49.92;101127.72;5039114;28;65228;-35
2021/03/02 05:20:39;;;;;;;;;;;;;;;32.62;50.14;101127.47;5038849;28;69897;-37
2021/03/02 05:23:08;;;;;;;;;;;;;;;32.65;49.88;101126.19;5040300;28;66043;-36
2021/03/02 05:25:37;;;;;;;;;;;;;;;32.68;50.29;101120.31;5039090;28;69669;-35
2021/03/02 05:28:06;;;;;;;;;;;;;;;32.68;49.94;101109.44;5039188;28;66202;-35
2021/03/02 05:30:35;;;;;;;;;;;;;;;32.71;50.25;101109.84;5039794;28;70567;-36
2021/03/02 05:33:04;;;;;;;;;;;;;;;32.75;49.79;101103.94;5039420;28;66261;-33
2021/03/02 05:35:33;;;;;;;;;;;;;;;32.79;49.93;101105.13;5043621;28;69155;-36
2021/03/02 05:38:02;;;;;;;;;;;;;;;32.80;49.74;101096.78;5036557;28;65817;-35
2021/03/02 05:40:31;;;;;;;;;;;;;;;32.82;50.05;101089.22;5040359;28;69171;-35
2021/03/02 05:42:59;;;;;;;;;;;;;;;32.82;49.66;101081.06;5036953;28;66016;-35
2021/03/02 05:45:28;;;;;;;;;;;;;;;32.83;49.62;101079.19;5039029;28;70189;-36
2021/03/02 05:47:58;;;;;;;;;;;;;;;32.87;49.81;101074.94;5035368;28;66494;-37
2021/03/02 05:50:27;;;;;;;;;;;;;;;32.85;50.27;101068.94;5038889;28;70055;-36
2021/03/02 05:52:56;;;;;;;;;;;;;;;32.90;50.03;101066.31;5038976;28;66275;-35
2021/03/02 05:55:25;;;;;;;;;;;;;;;32.86;49.88;101057.81;5039443;28;70172;-36
2021/03/02 05:57:54;;;;;;;;;;;;;;;32.92;49.87;101056.88;5036345;28;66718;-35
2021/03/02 06:00:23;;;;;;;;;;;;;;;32.92;49.62;101051.44;5037853;28;68953;-35
2021/03/02 06:02:52;;;;;;;;;;;;;;;32.96;49.88;101045.56;5038706;28;66183;-34
2021/03/02 06:05:22;;;;;;;;;;;;;;;32.97;49.72;101039.06;5037757;28;70317;-36
2021/03/02 06:07:51;;;;;;;;;;;;;;;33.02;50.16;101033.81;5037194;28;66390;-39
2021/03/02 06:10:27;;;;;;;;;;;;;;;32.99;50.07;101034.22;5038913;28;69196;-35
2021/03/02 06:12:57;;;;;;;;;;;;;;;33.04;49.85;101021.66;5037574;28;66217;-34
2021/03/02 06:15:26;;;;;;;;;;;;;;;33.06;50.14;101014.09;5035347;28;69460;-36
2021/03/02 06:18:12;;;;;;;;;;;;;;;33.07;49.76;101010.31;5038295;28;66678;-35
2021/03/02 06:20:41;;;;;;;;;;;;;;;33.09;49.96;101010.06;5038191;28;69806;-35
2021/03/02 06:23:27;;;;;;;;;;;;;;;33.12;49.92;100998.72;5040228;28;66266;-35
2021/03/02 06:26:24;;;;;;;;;;;;;;;33.18;49.50;100999.69;5037049;28;70073;-36
2021/03/02 06:28:58;;;;;;;;;;;;;;;33.08;49.93;100978.53;5034729;28;66785;-37
2021/03/02 06:31:34;;;;;;;;;;;;;;;33.10;50.11;101004.41;5053799;28;68269;-33
2021/03/02 06:34:06;;;;;;;;;;;;;;;33.24;49.64;100991.44;5038602;28;65940;-34
2021/03/02 06:36:37;;;;;;;;;;;;;;;33.22;49.94;100990.84;5037696;28;70758;-35
2021/03/02 06:39:19;;;;;;;;;;;;;;;33.29;49.76;100991.56;5039387;28;66233;-36
2021/03/02 06:41:49;;;;;;;;;;;;;;;33.34;49.65;100983.53;5035027;28;70097;-34
2021/03/02 06:44:18;;;;;;;;;;;;;;;33.34;49.87;100986.25;5030531;28;66230;-34
2021/03/02 06:46:46;;;;;;;;;;;;;;;33.33;49.83;100976.44;5037690;28;69058;-35
2021/03/02 06:49:15;;;;;;;;;;;;;;;33.38;49.49;100973.84;5038593;28;65237;-34
2021/03/02 06:51:44;;;;;;;;;;;;;;;33.38;49.68;100967.59;5034645;28;69131;-37
2021/03/02 06:54:17;;;;;;;;;;;;;;;33.42;49.83;100963.31;5034246;28;65050;-35
2021/03/02 06:56:59;;;;;;;;;;;;;;;33.46;49.65;100959.06;5034641;28;70029;-35
2021/03/02 06:59:29;;;;;;;;;;;;;;;33.47;49.40;100954.47;5035740;28;65680;-34
2021/03/02 07:01:57;;;;;;;;;;;;;;;33.50;49.78;100954.81;5036078;28;68986;-37
2021/03/02 07:04:31;;;;;;;;;;;;;;;33.56;49.74;100940.28;5032425;28;66930;-36
2021/03/02 07:07:14;;;;;;;;;;;;;;;33.58;49.36;100935.44;5034910;28;69689;-34
2021/03/02 07:09:47;;;;;;;;;;;;;;;33.55;49.65;100929.66;5030673;28;65896;-35
2021/03/02 07:12:17;;;;;;;;;;;;;;;33.53;49.58;100931.78;5035365;28;71161;-35
2021/03/02 07:14:46;;;;;;;;;;;;;;;33.62;49.45;100924.09;5032533;28;65515;-34
2021/03/02 07:17:25;;;;;;;;;;;;;;;33.61;49.51;100919.72;5033622;28;69837;-34
2021/03/02 07:19:56;;;;;;;;;;;;;;;33.67;49.25;100919.59;5035003;28;66129;-33
2021/03/02 07:22:26;;;;;;;;;;;;;;;33.70;49.20;100910.94;5037700;28;69133;-35
2021/03/02 07:24:55;;;;;;;;;;;;;;;33.69;49.54;100908.47;5034041;28;65249;-35
2021/03/02 07:27:24;;;;;;;;;;;;;;;33.73;49.45;100902.31;5035047;28;70134;-34
2021/03/02 07:29:53;;;;;;;;;;;;;;;33.75;49.37;100897.47;5036759;28;65659;-35
2021/03/02 07:32:22;;;;;;;;;;;;;;;33.74;49.49;100894.97;5031690;28;69413;-34
2021/03/02 07:34:51;;;;;;;;;;;;;;;33.77;49.34;100899.94;5036278;28;65927;-34
2021/03/02 07:37:20;;;;;;;;;;;;;;;33.79;49.44;100898.66;5036842;28;70308;-35
2021/03/02 07:40:00;;;;;;;;;;;;;;;33.81;49.46;100898.38;5036877;28;66070;-33
2021/03/02 07:42:29;;;;;;;;;;;;;;;33.83;49.51;100890.00;5035923;28;70080;-34
2021/03/02 07:45:07;;;;;;;;;;;;;;;33.85;49.46;100890.56;5037806;28;66423;-34
2021/03/02 07:47:56;;;;;;;;;;;;;;;33.77;49.57;100868.13;5033060;28;69815;-37
2021/03/02 07:50:30;;;;;;;;;;;;;;;33.94;49.38;100886.41;5039993;28;66051;-36
2021/03/02 07:53:17;;;;;;;;;;;;;;;33.94;49.37;100883.69;5039527;28;69578;-33
2021/03/02 07:55:46;;;;;;;;;;;;;;;34.03;49.28;100877.63;5035692;28;65530;-36
2021/03/02 07:58:16;;;;;;;;;;;;;;;34.07;49.46;100888.06;5040314;28;69985;-34
2021/03/02 08:01:05;;;;;;;;;;;;;;;34.16;49.18;100876.53;5040103;28;66919;-37
2021/03/02 08:03:34;;;;;;;;;;;;;;;34.20;48.86;100876.88;5040748;28;69829;-35
2021/03/02 08:06:21;;;;;;;;;;;;;;;34.20;48.97;100872.25;5038625;28;66286;-36
2021/03/02 08:08:50;;;;;;;;;;;;;;;34.20;49.03;100864.09;5039415;28;69669;-36
2021/03/02 08:11:30;;;;;;;;;;;;;;;34.21;48.96;100868.47;5040666;28;65809;-35
2021/03/02 08:14:21;;;;;;;;;;;;;;;34.23;49.07;100849.16;5034560;28;70120;-35
2021/03/02 08:16:53;;;;;;;;;;;;;;;34.33;48.86;100859.44;5040115;28;66287;-36
2021/03/02 08:19:41;;;;;;;;;;;;;;;34.39;48.82;100858.44;5038589;28;70023;-35
2021/03/02 08:22:22;;;;;;;;;;;;;;;34.49;48.60;100858.59;5039085;28;65389;-36
2021/03/02 08:24:53;;;;;;;;;;;;;;;34.50;48.48;100848.56;5035946;28;70765;-36
2021/03/02 08:27:38;;;;;;;;;;;;;;;34.55;48.49;100851.34;5039850;28;66056;-39
2021/03/02 08:30:23;;;;;;;;;;;;;;;34.54;48.83;100855.97;5039088;28;69112;-35
2021/03/02 08:32:53;;;;;;;;;;;;;;;34.63;48.56;100854.56;5039226;28;66321;-35
2021/03/02 08:35:33;;;;;;;;;;;;;;;34.61;48.53;100855.88;5037770;28;70072;-38
2021/03/02 08:38:09;;;;;;;;;;;;;;;34.69;48.43;100864.47;5037733;28;64609;-34
2021/03/02 08:40:37;;;;;;;;;;;;;;;34.72;48.46;100865.03;5037542;28;70656;-36
2021/03/02 08:43:09;;;;;;;;;;;;;;;34.77;48.47;100859.66;5037760;28;66373;-34
2021/03/02 08:45:41;;;;;;;;;;;;;;;34.75;48.30;100857.19;5026730;28;70558;-35
2021/03/02 08:48:17;;;;;;;;;;;;;;;34.74;48.33;100860.16;5038820;28;65677;-36
2021/03/02 08:50:47;;;;;;;;;;;;;;;34.79;48.40;100861.06;5040107;28;69339;-35
2021/03/02 08:53:35;;;;;;;;;;;;;;;34.84;48.12;100858.41;5039703;28;66354;-35
2021/03/02 08:56:07;;;;;;;;;;;;;;;34.89;48.11;100857.69;5036550;28;70299;-35
2021/03/02 08:58:40;;;;;;;;;;;;;;;34.96;48.01;100863.78;5036442;28;65584;-35
2021/03/02 09:01:13;;;;;;;;;;;;;;;34.95;47.99;100864.88;5039288;28;69047;-34
2021/03/02 09:03:43;;;;;;;;;;;;;;;34.97;48.00;100862.72;5048346;28;66210;-34
2021/03/02 09:06:12;;;;;;;;;;;;;;;34.99;47.67;100874.19;5041147;28;71033;-35
2021/03/02 09:08:55;;;;;;;;;;;;;;;35.04;47.55;100870.72;5048760;28;65477;-36
2021/03/02 09:11:25;;;;;;;;;;;;;;;35.12;47.64;100868.44;5055593;28;70132;-35
2021/03/02 09:13:55;;;;;;;;;;;;;;;35.12;47.54;100867.59;5045159;28;65880;-36
2021/03/02 09:16:27;;;;;;;;;;;;;;;35.08;47.25;100856.38;5047644;28;68707;-34
2021/03/02 09:19:13;;;;;;;;;;;;;;;35.01;47.96;100861.13;5052238;28;65353;-32
2021/03/02 09:21:43;;;;;;;;;;;;;;;34.86;48.35;100859.00;5044616;28;70066;-34
2021/03/02 09:24:14;;;;;;;;;;;;;;;34.75;48.45;100857.19;5037644;28;65048;-34
2021/03/02 09:26:51;;;;;;;;;;;;;;;34.77;48.83;100859.66;5045878;28;69299;-35
2021/03/02 09:29:20;;;;;;;;;;;;;;;34.74;48.91;100860.16;5040406;28;65526;-34
2021/03/02 09:31:49;;;;;;;;;;;;;;;34.70;49.00;100868.00;5047486;28;69266;-34
2021/03/02 09:34:19;;;;;;;;;;;;;;;34.75;48.70;100861.81;5050150;28;66964;-34
2021/03/02 09:36:49;;;;;;;;;;;;;;;34.70;49.05;100863.38;5042488;28;69959;-43
2021/03/02 09:39:22;;;;;;;;;;;;;;;34.66;48.82;100862.22;5046072;28;66749;-38
2021/03/02 09:41:52;;;;;;;;;;;;;;;34.66;49.04;100853.22;5045578;28;70451;-34
2021/03/02 09:44:26;;;;;;;;;;;;;;;34.63;49.32;100854.56;5041051;28;65300;-35
2021/03/02 09:46:57;;;;;;;;;;;;;;;34.64;49.68;100864.38;5039823;28;69986;-34
2021/03/02 09:49:47;;;;;;;;;;;;;;;34.62;49.71;100869.22;5051873;28;65026;-33
2021/03/02 09:52:21;;;;;;;;;;;;;;;34.61;49.70;100867.59;5040503;28;70321;-38
2021/03/02 09:55:08;;;;;;;;;;;;;;;34.65;49.53;100865.19;5053033;28;67036;-34
2021/03/02 09:57:56;;;;;;;;;;;;;;;34.63;49.61;100860.00;5041811;28;70628;-34
2021/03/02 10:00:27;;;;;;;;;;;;;;;34.61;49.68;100864.88;5041575;28;66488;-34
2021/03/02 10:02:59;;;;;;;;;;;;;;;34.62;48.87;100861.06;5046473;28;70525;-35
2021/03/02 10:05:29;;;;;;;;;;;;;;;34.60;49.28;100865.94;5041084;28;67610;-34
2021/03/02 10:08:14;;;;;;;;;;;;;;;34.57;49.06;100860.13;5040179;28;43585;-37
2021/03/02 10:10:43;;;;;;;;;;;;;;;34.59;49.40;100858.81;5025365;28;66198;-34
2021/03/02 10:13:20;;;;;;;;;;;;;;;34.62;49.33;100866.50;5041475;28;69659;-34
2021/03/02 10:15:50;;;;;;;;;;;;;;;34.64;49.37;100867.09;5046628;28;66743;-34
2021/03/02 10:18:22;;;;;;;;;;;;;;;34.63;48.99;100878.22;5039976;28;70455;-35
2021/03/02 10:21:03;;;;;;;;;;;;;;;34.65;49.15;100882.34;5042801;28;66338;-37
2021/03/02 10:23:32;;;;;;;;;;;;;;;34.66;48.94;100889.47;5037664;28;70384;-35
2021/03/02 10:26:01;;;;;;;;;;;;;;;34.58;49.02;100900.78;5037840;28;65422;-35
2021/03/02 10:28:33;;;;;;;;;;;;;;;34.61;48.93;100894.00;5038797;28;69235;-35
2021/03/02 10:31:02;;;;;;;;;;;;;;;34.58;48.85;100895.31;5037587;28;66442;-35
2021/03/02 10:33:31;;;;;;;;;;;;;;;34.56;48.72;100904.81;5038524;28;70202;-35
2021/03/02 10:36:00;;;;;;;;;;;;;;;34.58;48.77;100898.03;5038331;28;65422;-35
2021/03/02 10:38:29;;;;;;;;;;;;;;;34.50;48.80;100898.41;5037290;28;70022;-34
2021/03/02 10:40:58;;;;;;;;;;;;;;;34.47;48.73;100896.19;5038206;28;65867;-34
2021/03/02 10:43:27;;;;;;;;;;;;;;;34.44;48.88;100899.41;5037708;28;69244;-35
2021/03/02 10:45:57;;;;;;;;;;;;;;;34.39;48.75;100907.47;5050530;28;66324;-39
2021/03/02 10:48:28;;;;;;;;;;;;;;;34.32;48.97;100906.78;5036218;28;68867;-34
2021/03/02 10:50:58;;;;;;;;;;;;;;;34.32;48.77;100909.50;5033874;28;65940;-35
2021/03/02 10:53:28;;;;;;;;;;;;;;;34.33;48.42;100908.44;5036119;28;69447;-36
2021/03/02 10:55:57;;;;;;;;;;;;;;;34.31;48.51;100919.56;5038008;28;65395;-38
2021/03/02 10:58:26;;;;;;;;;;;;;;;34.30;48.57;100917.06;5038055;28;69993;-37
2021/03/02 11:00:56;;;;;;;;;;;;;;;34.23;48.48;100919.94;5051829;28;64605;-36
2021/03/02 11:03:25;;;;;;;;;;;;;;;34.23;49.13;100934.38;5027677;28;70528;-34
2021/03/02 11:05:54;;;;;;;;;;;;;;;34.26;49.30;100928.44;5037148;28;65551;-39
2021/03/02 11:08:23;;;;;;;;;;;;;;;34.20;49.72;100937.59;5036926;28;70227;-35
2021/03/02 11:10:52;;;;;;;;;;;;;;;34.21;49.55;100939.28;5037844;28;66699;-35
2021/03/02 11:13:21;;;;;;;;;;;;;;;34.19;49.93;100935.94;5037334;28;70191;-33
2021/03/02 11:15:49;;;;;;;;;;;;;;;34.19;50.26;100935.13;5037632;28;65431;-36
2021/03/02 11:18:18;;;;;;;;;;;;;;;34.17;50.33;100942.72;5036886;28;69179;-33
2021/03/02 11:20:47;;;;;;;;;;;;;;;34.16;49.64;100952.78;5039671;28;66387;-34
2021/03/02 11:23:16;;;;;;;;;;;;;;;34.15;49.51;100951.09;5040160;28;68913;-38
2021/03/02 11:25:45;;;;;;;;;;;;;;;34.15;49.61;100950.28;5041944;28;66332;-36
2021/03/02 11:28:15;;;;;;;;;;;;;;;34.08;49.77;100944.97;5041285;28;69052;-34
2021/03/02 11:30:44;;;;;;;;;;;;;;;34.17;49.26;100948.97;5040320;28;65535;-37
2021/03/02 11:33:14;;;;;;;;;;;;;;;34.00;50.31;100950.78;5035847;28;71133;-36
2021/03/02 11:35:44;;;;;;;;;;;;;;;33.93;50.54;100952.78;5041970;28;66303;-33
2021/03/02 11:38:15;;;;;;;;;;;;;;;33.92;50.72;100956.59;5041089;28;68993;-33
2021/03/02 11:40:44;;;;;;;;;;;;;;;33.90;50.59;100954.09;5041788;28;66984;-35
2021/03/02 11:43:14;;;;;;;;;;;;;;;33.87;50.92;100953.75;5040470;28;70853;-36
2021/03/02 11:45:43;;;;;;;;;;;;;;;33.83;51.27;100952.59;5040060;28;67090;-35
2021/03/02 11:48:12;;;;;;;;;;;;;;;33.87;50.48;100959.19;5040676;28;70570;-34
2021/03/02 11:50:57;;;;;;;;;;;;;;;33.73;50.47;100964.88;5038962;28;67671;-35
2021/03/02 11:53:25;;;;;;;;;;;;;;;33.75;49.99;100957.31;5041224;28;70048;-37
2021/03/02 11:55:55;;;;;;;;;;;;;;;33.66;49.70;100958.75;5041178;28;66494;-35
2021/03/02 11:58:24;;;;;;;;;;;;;;;33.67;49.96;100971.28;5039109;28;68921;-35
2021/03/02 12:00:52;;;;;;;;;;;;;;;33.62;50.03;100973.88;5039770;28;66626;-36
2021/03/02 12:03:22;;;;;;;;;;;;;;;33.55;49.87;100975.91;5039689;28;69777;-34
2021/03/02 12:05:51;;;;;;;;;;;;;;;33.55;50.28;100979.44;5040038;28;65433;-35
2021/03/02 12:08:25;;;;;;;;;;;;;;;33.53;50.76;100980.75;5036143;28;69770;-37
2021/03/02 12:10:54;;;;;;;;;;;;;;;33.45;51.32;100978.34;5039652;28;66100;-34
2021/03/02 12:13:23;;;;;;;;;;;;;;;33.45;50.81;100978.34;5026919;28;69694;-35
2021/03/02 12:15:52;;;;;;;;;;;;;;;33.46;50.86;100969.09;5038205;28;65604;-39
2021/03/02 12:18:22;;;;;;;;;;;;;;;33.44;51.22;100971.25;5042096;28;69950;-35
2021/03/02 12:20:56;;;;;;;;;;;;;;;33.37;51.44;100977.59;5039447;28;66403;-36
2021/03/02 12:23:25;;;;;;;;;;;;;;;33.37;51.57;100983.03;5039411;28;68282;-37
2021/03/02 12:25:54;;;;;;;;;;;;;;;33.28;51.84;100984.47;5040402;28;66431;-38
2021/03/02 12:28:22;;;;;;;;;;;;;;;33.29;51.53;100980.69;5040108;28;69842;-37
2021/03/02 12:30:51;;;;;;;;;;;;;;;33.29;52.17;100986.13;5037288;28;66405;-35
2021/03/02 12:33:20;;;;;;;;;;;;;;;33.33;52.25;100998.19;5046122;28;69947;-35
2021/03/02 12:35:50;;;;;;;;;;;;;;;33.30;52.25;100993.22;5039890;28;66571;-35
2021/03/02 12:38:20;;;;;;;;;;;;;;;33.37;52.62;100988.47;5038584;28;71195;-35
2021/03/02 12:40:48;;;;;;;;;;;;;;;33.33;53.02;100995.47;5039875;28;65439;-35
2021/03/02 12:43:20;;;;;;;;;;;;;;;33.24;51.69;100999.59;5042443;28;69339;-35
2021/03/02 12:45:49;;;;;;;;;;;;;;;32.99;50.48;100996.19;5039392;28;66359;-35
2021/03/02 12:48:17;;;;;;;;;;;;;;;32.75;49.41;100996.13;5039302;28;69858;-35
2021/03/02 12:50:46;;;;;;;;;;;;;;;32.65;49.24;101006.69;5038439;28;66812;-35
2021/03/02 12:53:16;;;;;;;;;;;;;;;32.45;47.52;100999.59;5041709;28;68927;-36
2021/03/02 12:55:45;;;;;;;;;;;;;;;32.34;48.00;101003.09;5030041;28;65310;-35